sensor_id;sensor_type;location;lat;lon;timestamp;P1;durP1;ratioP1;P2;durP2;ratioP2
63621;SDS011;49770;47.544;19.074;2023-04-05T04:19:17;15.88;;;8.55;;
63621;SDS011;49770;47.544;19.074;2023-04-05T04:22:22;15.77;;;8.23;;
63621;SDS011;49770;47.544;19.074;2023-04-05T04:25:28;14.25;;;8.45;;
63621;SDS011;49770;47.544;19.074;2023-04-05T04:28:34;14.50;;;8.57;;
63621;SDS011;49770;47.544;19.074;2023-04-05T04:31:43;14.30;;;8.00;;
63621;SDS011;49770;47.544;19.074;2023-04-05T04:34:51;15.75;;;9.27;;
63621;SDS011;49770;47.544;19.074;2023-04-05T04:38:03;14.60;;;8.73;;
63621;SDS011;49770;47.544;19.074;2023-04-05T04:41:09;13.23;;;8.43;;
63621;SDS011;49770;47.544;19.074;2023-04-05T04:44:13;15.00;;;9.07;;
63621;SDS011;49770;47.544;19.074;2023-04-05T04:47:16;15.65;;;9.65;;
63621;SDS011;49770;47.544;19.074;2023-04-05T04:50:23;17.27;;;9.75;;
63621;SDS011;49770;47.544;19.074;2023-04-05T04:53:28;16.10;;;9.85;;
63621;SDS011;49770;47.544;19.074;2023-04-05T04:56:31;13.80;;;8.32;;
63621;SDS011;49770;47.544;19.074;2023-04-05T04:59:34;16.25;;;9.27;;
63621;SDS011;49770;47.544;19.074;2023-04-05T05:02:38;18.17;;;9.63;;
63621;SDS011;49770;47.544;19.074;2023-04-05T05:05:42;20.70;;;10.05;;
63621;SDS011;49770;47.544;19.074;2023-04-05T05:08:45;15.43;;;9.70;;
63621;SDS011;49770;47.544;19.074;2023-04-05T05:11:48;17.87;;;10.82;;
63621;SDS011;49770;47.544;19.074;2023-04-05T05:14:51;17.60;;;10.35;;
63621;SDS011;49770;47.544;19.074;2023-04-05T05:17:55;16.58;;;10.07;;
63621;SDS011;49770;47.544;19.074;2023-04-05T05:20:59;17.00;;;10.35;;
63621;SDS011;49770;47.544;19.074;2023-04-05T05:24:03;17.48;;;10.48;;
63621;SDS011;49770;47.544;19.074;2023-04-05T05:27:08;19.20;;;10.02;;
63621;SDS011;49770;47.544;19.074;2023-04-05T05:30:11;15.10;;;10.32;;
63621;SDS011;49770;47.544;19.074;2023-04-05T05:33:14;14.93;;;9.07;;
63621;SDS011;49770;47.544;19.074;2023-04-05T05:36:17;14.23;;;9.63;;
63621;SDS011;49770;47.544;19.074;2023-04-05T05:39:21;15.15;;;9.52;;
63621;SDS011;49770;47.544;19.074;2023-04-05T05:42:25;15.93;;;10.38;;
63621;SDS011;49770;47.544;19.074;2023-04-05T05:45:31;14.57;;;8.90;;
63621;SDS011;49770;47.544;19.074;2023-04-05T05:48:34;14.02;;;9.43;;
63621;SDS011;49770;47.544;19.074;2023-04-05T05:51:37;15.43;;;9.18;;
63621;SDS011;49770;47.544;19.074;2023-04-05T05:54:40;19.25;;;10.57;;
63621;SDS011;49770;47.544;19.074;2023-04-05T05:57:43;14.77;;;9.32;;
63621;SDS011;49770;47.544;19.074;2023-04-05T06:00:47;15.88;;;9.88;;
63621;SDS011;49770;47.544;19.074;2023-04-05T06:03:52;17.73;;;9.15;;
63621;SDS011;49770;47.544;19.074;2023-04-05T06:06:56;13.73;;;9.43;;
63621;SDS011;49770;47.544;19.074;2023-04-05T06:09:59;14.18;;;8.63;;
63621;SDS011;49770;47.544;19.074;2023-04-05T06:13:02;13.13;;;8.07;;
63621;SDS011;49770;47.544;19.074;2023-04-05T06:16:05;10.27;;;7.28;;
63621;SDS011;49770;47.544;19.074;2023-04-05T06:19:08;12.80;;;8.18;;
63621;SDS011;49770;47.544;19.074;2023-04-05T06:22:11;14.77;;;8.10;;
63621;SDS011;49770;47.544;19.074;2023-04-05T06:25:13;13.70;;;8.00;;
63621;SDS011;49770;47.544;19.074;2023-04-05T06:28:19;16.33;;;6.55;;
63621;SDS011;49770;47.544;19.074;2023-04-05T06:31:26;8.75;;;5.62;;
63621;SDS011;49770;47.544;19.074;2023-04-05T06:34:33;6.72;;;4.85;;
63621;SDS011;49770;47.544;19.074;2023-04-05T06:37:35;8.55;;;5.12;;
63621;SDS011;49770;47.544;19.074;2023-04-05T06:40:38;8.32;;;5.62;;
63621;SDS011;49770;47.544;19.074;2023-04-05T06:43:41;6.97;;;4.68;;
63621;SDS011;49770;47.544;19.074;2023-04-05T06:46:44;6.78;;;5.37;;
63621;SDS011;49770;47.544;19.074;2023-04-05T06:49:47;7.90;;;4.93;;
63621;SDS011;49770;47.544;19.074;2023-04-05T06:52:50;6.60;;;5.00;;
63621;SDS011;49770;47.544;19.074;2023-04-05T06:55:53;6.65;;;5.30;;
63621;SDS011;49770;47.544;19.074;2023-04-05T06:58:57;8.00;;;5.10;;
63621;SDS011;49770;47.544;19.074;2023-04-05T07:02:00;5.97;;;5.12;;
63621;SDS011;49770;47.544;19.074;2023-04-05T07:05:04;7.03;;;5.18;;
63621;SDS011;49770;47.544;19.074;2023-04-05T07:08:07;6.85;;;4.85;;
63621;SDS011;49770;47.544;19.074;2023-04-05T07:11:11;6.12;;;4.93;;
63621;SDS011;49770;47.544;19.074;2023-04-05T07:14:14;6.50;;;5.32;;
63621;SDS011;49770;47.544;19.074;2023-04-05T07:17:17;6.00;;;4.93;;
63621;SDS011;49770;47.544;19.074;2023-04-05T07:20:20;8.18;;;5.18;;
63621;SDS011;49770;47.544;19.074;2023-04-05T07:23:23;8.88;;;4.95;;
63621;SDS011;49770;47.544;19.074;2023-04-05T07:26:26;10.20;;;5.30;;
63621;SDS011;49770;47.544;19.074;2023-04-05T07:29:29;6.30;;;4.80;;
63621;SDS011;49770;47.544;19.074;2023-04-05T07:32:33;13.40;;;5.07;;
63621;SDS011;49770;47.544;19.074;2023-04-05T07:35:36;8.10;;;5.05;;
63621;SDS011;49770;47.544;19.074;2023-04-05T07:38:39;6.90;;;5.28;;
63621;SDS011;49770;47.544;19.074;2023-04-05T07:41:42;5.97;;;4.72;;
63621;SDS011;49770;47.544;19.074;2023-04-05T07:44:46;6.68;;;5.12;;
63621;SDS011;49770;47.544;19.074;2023-04-05T07:47:49;6.93;;;4.68;;
63621;SDS011;49770;47.544;19.074;2023-04-05T07:50:51;5.47;;;4.70;;
63621;SDS011;49770;47.544;19.074;2023-04-05T07:53:55;6.37;;;4.90;;
63621;SDS011;49770;47.544;19.074;2023-04-05T08:00:43;6.50;;;5.00;;
63621;SDS011;49770;47.544;19.074;2023-04-05T08:03:46;5.05;;;4.55;;
63621;SDS011;49770;47.544;19.074;2023-04-05T08:06:49;5.57;;;4.97;;
63621;SDS011;49770;47.544;19.074;2023-04-05T08:09:52;6.60;;;5.05;;
63621;SDS011;49770;47.544;19.074;2023-04-05T08:12:58;6.93;;;5.35;;
63621;SDS011;49770;47.544;19.074;2023-04-05T08:16:02;7.18;;;4.75;;
63621;SDS011;49770;47.544;19.074;2023-04-05T08:19:04;8.23;;;5.65;;
63621;SDS011;49770;47.544;19.074;2023-04-05T08:22:08;6.70;;;4.87;;
63621;SDS011;49770;47.544;19.074;2023-04-05T08:25:10;8.65;;;5.30;;
63621;SDS011;49770;47.544;19.074;2023-04-05T08:28:13;8.88;;;5.78;;
63621;SDS011;49770;47.544;19.074;2023-04-05T08:31:16;7.25;;;5.22;;
63621;SDS011;49770;47.544;19.074;2023-04-05T08:34:18;7.80;;;4.72;;
63621;SDS011;49770;47.544;19.074;2023-04-05T08:37:21;7.28;;;4.95;;
63621;SDS011;49770;47.544;19.074;2023-04-05T08:40:25;8.15;;;4.95;;
63621;SDS011;49770;47.544;19.074;2023-04-05T08:47:00;5.70;;;4.70;;
63621;SDS011;49770;47.544;19.074;2023-04-05T08:50:03;7.95;;;5.95;;
63621;SDS011;49770;47.544;19.074;2023-04-05T08:53:06;9.23;;;6.00;;
63621;SDS011;49770;47.544;19.074;2023-04-05T08:56:11;7.97;;;5.55;;
63621;SDS011;49770;47.544;19.074;2023-04-05T08:59:18;8.30;;;5.60;;
63621;SDS011;49770;47.544;19.074;2023-04-05T09:02:22;9.38;;;5.78;;
63621;SDS011;49770;47.544;19.074;2023-04-05T09:05:26;7.80;;;5.55;;
63621;SDS011;49770;47.544;19.074;2023-04-05T09:08:30;7.68;;;5.57;;
63621;SDS011;49770;47.544;19.074;2023-04-05T09:11:33;7.70;;;5.40;;
63621;SDS011;49770;47.544;19.074;2023-04-05T09:14:37;8.35;;;5.72;;
63621;SDS011;49770;47.544;19.074;2023-04-05T09:17:40;8.35;;;5.90;;
63621;SDS011;49770;47.544;19.074;2023-04-05T09:20:44;6.25;;;5.47;;
63621;SDS011;49770;47.544;19.074;2023-04-05T09:23:51;6.85;;;5.82;;
63621;SDS011;49770;47.544;19.074;2023-04-05T09:27:11;8.55;;;6.05;;
63621;SDS011;49770;47.544;19.074;2023-04-05T09:30:20;11.43;;;5.78;;
63621;SDS011;49770;47.544;19.074;2023-04-05T09:33:23;7.68;;;5.35;;
63621;SDS011;49770;47.544;19.074;2023-04-05T09:36:26;7.35;;;5.50;;
63621;SDS011;49770;47.544;19.074;2023-04-05T09:39:30;8.55;;;5.12;;
63621;SDS011;49770;47.544;19.074;2023-04-05T09:42:42;8.70;;;4.97;;
63621;SDS011;49770;47.544;19.074;2023-04-05T09:45:48;8.27;;;5.80;;
63621;SDS011;49770;47.544;19.074;2023-04-05T09:48:51;8.45;;;6.20;;
63621;SDS011;49770;47.544;19.074;2023-04-05T09:51:56;6.43;;;5.53;;
63621;SDS011;49770;47.544;19.074;2023-04-05T09:55:00;8.73;;;5.70;;
63621;SDS011;49770;47.544;19.074;2023-04-05T09:58:05;9.02;;;6.03;;
63621;SDS011;49770;47.544;19.074;2023-04-05T10:01:13;8.30;;;5.70;;
63621;SDS011;49770;47.544;19.074;2023-04-05T10:04:18;9.88;;;5.47;;
63621;SDS011;49770;47.544;19.074;2023-04-05T10:07:22;7.50;;;5.93;;
63621;SDS011;49770;47.544;19.074;2023-04-05T10:10:25;7.05;;;5.60;;
63621;SDS011;49770;47.544;19.074;2023-04-05T10:13:28;7.80;;;6.32;;
63621;SDS011;49770;47.544;19.074;2023-04-05T10:16:32;9.25;;;7.15;;
63621;SDS011;49770;47.544;19.074;2023-04-05T10:20:00;8.60;;;6.20;;
63621;SDS011;49770;47.544;19.074;2023-04-05T10:23:12;6.12;;;5.40;;
63621;SDS011;49770;47.544;19.074;2023-04-05T10:26:20;6.32;;;5.60;;
63621;SDS011;49770;47.544;19.074;2023-04-05T10:33:30;9.60;;;6.20;;
63621;SDS011;49770;47.544;19.074;2023-04-05T10:36:57;9.70;;;5.43;;
63621;SDS011;49770;47.544;19.074;2023-04-05T10:40:02;8.65;;;5.95;;
63621;SDS011;49770;47.544;19.074;2023-04-05T10:43:14;6.72;;;5.65;;
63621;SDS011;49770;47.544;19.074;2023-04-05T10:46:20;7.15;;;5.75;;
63621;SDS011;49770;47.544;19.074;2023-04-05T10:52:33;10.88;;;5.60;;
63621;SDS011;49770;47.544;19.074;2023-04-05T10:55:36;7.57;;;5.75;;
63621;SDS011;49770;47.544;19.074;2023-04-05T10:58:40;8.05;;;5.78;;
63621;SDS011;49770;47.544;19.074;2023-04-05T11:01:45;8.70;;;5.28;;
63621;SDS011;49770;47.544;19.074;2023-04-05T11:04:54;6.62;;;5.22;;
63621;SDS011;49770;47.544;19.074;2023-04-05T11:08:05;7.75;;;5.87;;
63621;SDS011;49770;47.544;19.074;2023-04-05T11:11:08;8.02;;;5.93;;
63621;SDS011;49770;47.544;19.074;2023-04-05T11:17:27;7.18;;;5.60;;
63621;SDS011;49770;47.544;19.074;2023-04-05T11:20:46;7.80;;;6.35;;
63621;SDS011;49770;47.544;19.074;2023-04-05T11:23:59;7.50;;;5.50;;
63621;SDS011;49770;47.544;19.074;2023-04-05T11:27:08;6.47;;;5.68;;
63621;SDS011;49770;47.544;19.074;2023-04-05T11:30:11;6.95;;;5.90;;
63621;SDS011;49770;47.544;19.074;2023-04-05T11:36:41;6.50;;;5.37;;
63621;SDS011;49770;47.544;19.074;2023-04-05T11:39:52;5.50;;;4.90;;
63621;SDS011;49770;47.544;19.074;2023-04-05T11:43:31;8.25;;;5.30;;
63621;SDS011;49770;47.544;19.074;2023-04-05T11:46:40;7.10;;;5.35;;
63621;SDS011;49770;47.544;19.074;2023-04-05T11:49:43;6.85;;;5.03;;
63621;SDS011;49770;47.544;19.074;2023-04-05T11:56:11;7.22;;;4.75;;
63621;SDS011;49770;47.544;19.074;2023-04-05T11:59:17;9.15;;;5.25;;
63621;SDS011;49770;47.544;19.074;2023-04-05T12:02:20;8.18;;;5.35;;
63621;SDS011;49770;47.544;19.074;2023-04-05T12:05:23;6.35;;;5.12;;
63621;SDS011;49770;47.544;19.074;2023-04-05T12:08:43;7.97;;;5.78;;
63621;SDS011;49770;47.544;19.074;2023-04-05T12:11:52;8.40;;;5.43;;
63621;SDS011;49770;47.544;19.074;2023-04-05T12:14:59;8.07;;;5.05;;
63621;SDS011;49770;47.544;19.074;2023-04-05T12:18:03;6.57;;;5.22;;
63621;SDS011;49770;47.544;19.074;2023-04-05T12:21:06;6.35;;;5.25;;
63621;SDS011;49770;47.544;19.074;2023-04-05T12:24:11;6.55;;;5.57;;
63621;SDS011;49770;47.544;19.074;2023-04-05T12:27:14;5.70;;;5.10;;
63621;SDS011;49770;47.544;19.074;2023-04-05T12:30:18;6.80;;;4.90;;
63621;SDS011;49770;47.544;19.074;2023-04-05T12:33:25;6.50;;;4.85;;
63621;SDS011;49770;47.544;19.074;2023-04-05T12:36:30;6.57;;;5.18;;
63621;SDS011;49770;47.544;19.074;2023-04-05T12:39:33;6.43;;;5.45;;
63621;SDS011;49770;47.544;19.074;2023-04-05T12:42:37;7.60;;;4.72;;
63621;SDS011;49770;47.544;19.074;2023-04-05T12:45:41;6.97;;;5.90;;
63621;SDS011;49770;47.544;19.074;2023-04-05T12:48:48;7.22;;;5.40;;
63621;SDS011;49770;47.544;19.074;2023-04-05T12:51:52;6.95;;;5.57;;
63621;SDS011;49770;47.544;19.074;2023-04-05T12:54:55;7.32;;;5.37;;
63621;SDS011;49770;47.544;19.074;2023-04-05T12:57:58;8.85;;;5.85;;
63621;SDS011;49770;47.544;19.074;2023-04-05T13:01:02;7.57;;;5.20;;
63621;SDS011;49770;47.544;19.074;2023-04-05T13:04:05;7.10;;;5.22;;
63621;SDS011;49770;47.544;19.074;2023-04-05T13:07:18;7.68;;;5.60;;
63621;SDS011;49770;47.544;19.074;2023-04-05T13:10:23;7.70;;;5.70;;
63621;SDS011;49770;47.544;19.074;2023-04-05T13:13:27;7.45;;;5.50;;
63621;SDS011;49770;47.544;19.074;2023-04-05T13:16:29;18.95;;;6.12;;
63621;SDS011;49770;47.544;19.074;2023-04-05T13:19:32;8.15;;;6.00;;
63621;SDS011;49770;47.544;19.074;2023-04-05T13:22:35;8.07;;;5.80;;
63621;SDS011;49770;47.544;19.074;2023-04-05T13:25:38;8.32;;;6.00;;
63621;SDS011;49770;47.544;19.074;2023-04-05T13:28:42;8.75;;;6.05;;
63621;SDS011;49770;47.544;19.074;2023-04-05T13:31:45;6.95;;;6.00;;
63621;SDS011;49770;47.544;19.074;2023-04-05T13:34:48;6.65;;;5.55;;
63621;SDS011;49770;47.544;19.074;2023-04-05T13:37:51;7.78;;;5.60;;
63621;SDS011;49770;47.544;19.074;2023-04-05T13:40:53;7.55;;;5.80;;
63621;SDS011;49770;47.544;19.074;2023-04-05T13:43:56;8.90;;;5.70;;
63621;SDS011;49770;47.544;19.074;2023-04-05T13:47:02;8.55;;;5.85;;
63621;SDS011;49770;47.544;19.074;2023-04-05T13:50:06;9.25;;;6.18;;
63621;SDS011;49770;47.544;19.074;2023-04-05T13:53:09;7.72;;;6.20;;
63621;SDS011;49770;47.544;19.074;2023-04-05T13:56:12;9.07;;;6.30;;
63621;SDS011;49770;47.544;19.074;2023-04-05T13:59:15;11.27;;;6.03;;
63621;SDS011;49770;47.544;19.074;2023-04-05T14:02:18;6.87;;;5.60;;
63621;SDS011;49770;47.544;19.074;2023-04-05T14:05:26;7.75;;;5.87;;
63621;SDS011;49770;47.544;19.074;2023-04-05T14:08:29;7.32;;;5.87;;
63621;SDS011;49770;47.544;19.074;2023-04-05T14:11:32;9.18;;;6.07;;
63621;SDS011;49770;47.544;19.074;2023-04-05T14:14:35;8.25;;;6.12;;
63621;SDS011;49770;47.544;19.074;2023-04-05T14:17:38;8.50;;;5.97;;
63621;SDS011;49770;47.544;19.074;2023-04-05T14:20:41;10.13;;;6.10;;
63621;SDS011;49770;47.544;19.074;2023-04-05T14:23:45;8.23;;;5.93;;
63621;SDS011;49770;47.544;19.074;2023-04-05T14:26:48;8.32;;;5.85;;
63621;SDS011;49770;47.544;19.074;2023-04-05T14:29:52;8.32;;;5.80;;
63621;SDS011;49770;47.544;19.074;2023-04-05T14:32:58;8.48;;;5.70;;
63621;SDS011;49770;47.544;19.074;2023-04-05T14:36:01;8.80;;;6.03;;
63621;SDS011;49770;47.544;19.074;2023-04-05T14:39:04;7.43;;;5.72;;
63621;SDS011;49770;47.544;19.074;2023-04-05T14:42:07;6.87;;;5.60;;
63621;SDS011;49770;47.544;19.074;2023-04-05T14:45:10;6.90;;;5.60;;
63621;SDS011;49770;47.544;19.074;2023-04-05T14:48:13;8.57;;;5.90;;
63621;SDS011;49770;47.544;19.074;2023-04-05T14:51:15;7.85;;;5.50;;
63621;SDS011;49770;47.544;19.074;2023-04-05T14:54:18;8.60;;;5.85;;
63621;SDS011;49770;47.544;19.074;2023-04-05T14:57:21;6.30;;;5.47;;
63621;SDS011;49770;47.544;19.074;2023-04-05T15:00:24;6.80;;;5.80;;
63621;SDS011;49770;47.544;19.074;2023-04-05T15:03:27;8.65;;;6.20;;
63621;SDS011;49770;47.544;19.074;2023-04-05T15:06:32;10.05;;;5.82;;
63621;SDS011;49770;47.544;19.074;2023-04-05T15:09:35;8.00;;;6.12;;
63621;SDS011;49770;47.544;19.074;2023-04-05T15:12:38;8.32;;;5.95;;
63621;SDS011;49770;47.544;19.074;2023-04-05T15:15:40;8.43;;;6.18;;
